sensor_id;sensor_type;location;lat;lon;timestamp;pressure;altitude;pressure_sealevel;temperature;humidity
10008;BME280;5043;41.766;26.204;2023-06-22T00:01:18;101081.75;;;22.17;98.22
10008;BME280;5043;41.766;26.204;2023-06-22T00:03:43;101070.38;;;21.99;98.00
10008;BME280;5043;41.766;26.204;2023-06-22T00:06:08;101074.22;;;22.05;97.74
10008;BME280;5043;41.766;26.204;2023-06-22T00:08:34;101080.63;;;22.04;97.69
10008;BME280;5043;41.766;26.204;2023-06-22T00:10:59;101082.34;;;21.97;97.79
10008;BME280;5043;41.766;26.204;2023-06-22T00:13:25;101081.81;;;22.01;97.70
10008;BME280;5043;41.766;26.204;2023-06-22T00:15:50;101090.03;;;22.00;97.72
10008;BME280;5043;41.766;26.204;2023-06-22T00:18:16;101082.88;;;21.92;97.82
10008;BME280;5043;41.766;26.204;2023-06-22T00:20:41;101097.09;;;22.01;97.56
10008;BME280;5043;41.766;26.204;2023-06-22T00:23:07;101103.13;;;22.03;97.08
10008;BME280;5043;41.766;26.204;2023-06-22T00:25:42;101045.31;;;21.68;97.14
10008;BME280;5043;41.766;26.204;2023-06-22T00:28:08;101060.88;;;21.88;97.24
10008;BME280;5043;41.766;26.204;2023-06-22T00:30:34;101066.75;;;21.76;98.00
10008;BME280;5043;41.766;26.204;2023-06-22T00:33:00;101082.22;;;21.74;99.07
10008;BME280;5043;41.766;26.204;2023-06-22T00:35:26;101100.03;;;21.75;100.00
10008;BME280;5043;41.766;26.204;2023-06-22T00:37:55;101093.66;;;21.68;100.00
10008;BME280;5043;41.766;26.204;2023-06-22T00:40:28;101124.56;;;21.56;100.00
10008;BME280;5043;41.766;26.204;2023-06-22T00:42:54;101153.78;;;21.59;100.00
10008;BME280;5043;41.766;26.204;2023-06-22T00:45:21;101127.63;;;21.29;100.00
10008;BME280;5043;41.766;26.204;2023-06-22T00:47:52;101131.16;;;21.13;100.00
10008;BME280;5043;41.766;26.204;2023-06-22T00:50:20;101093.34;;;20.42;100.00
10008;BME280;5043;41.766;26.204;2023-06-22T00:52:56;101128.00;;;20.51;100.00
10008;BME280;5043;41.766;26.204;2023-06-22T00:55:23;101129.84;;;20.35;100.00
10008;BME280;5043;41.766;26.204;2023-06-22T00:57:49;101124.84;;;20.48;100.00
10008;BME280;5043;41.766;26.204;2023-06-22T01:00:16;101108.03;;;20.30;100.00
10008;BME280;5043;41.766;26.204;2023-06-22T01:02:46;101127.56;;;20.56;100.00
10008;BME280;5043;41.766;26.204;2023-06-22T01:05:14;101090.84;;;20.56;100.00
10008;BME280;5043;41.766;26.204;2023-06-22T01:13:01;101141.66;;;20.82;100.00
10008;BME280;5043;41.766;26.204;2023-06-22T01:15:44;101115.00;;;20.65;100.00
10008;BME280;5043;41.766;26.204;2023-06-22T01:18:12;101147.88;;;20.83;100.00
10008;BME280;5043;41.766;26.204;2023-06-22T01:20:40;101110.47;;;20.65;100.00
10008;BME280;5043;41.766;26.204;2023-06-22T01:26:06;101132.28;;;20.78;100.00
10008;BME280;5043;41.766;26.204;2023-06-22T01:31:07;101130.94;;;20.82;100.00
10008;BME280;5043;41.766;26.204;2023-06-22T01:33:37;101115.34;;;20.70;100.00
10008;BME280;5043;41.766;26.204;2023-06-22T01:36:04;101142.19;;;20.86;100.00
10008;BME280;5043;41.766;26.204;2023-06-22T01:38:31;101094.84;;;20.52;100.00
10008;BME280;5043;41.766;26.204;2023-06-22T01:40:57;101148.00;;;20.73;100.00
10008;BME280;5043;41.766;26.204;2023-06-22T01:43:25;101128.22;;;20.66;100.00
10008;BME280;5043;41.766;26.204;2023-06-22T01:45:51;101076.56;;;20.40;100.00
10008;BME280;5043;41.766;26.204;2023-06-22T01:48:21;101125.41;;;20.68;100.00
10008;BME280;5043;41.766;26.204;2023-06-22T01:50:47;101125.88;;;20.71;100.00
10008;BME280;5043;41.766;26.204;2023-06-22T01:53:12;101113.81;;;20.67;100.00
10008;BME280;5043;41.766;26.204;2023-06-22T01:55:38;101080.94;;;20.41;100.00
10008;BME280;5043;41.766;26.204;2023-06-22T01:58:03;101109.78;;;20.55;100.00
10008;BME280;5043;41.766;26.204;2023-06-22T02:00:32;101112.13;;;20.58;100.00
10008;BME280;5043;41.766;26.204;2023-06-22T02:03:07;101137.75;;;20.52;100.00
10008;BME280;5043;41.766;26.204;2023-06-22T02:05:44;101114.28;;;20.54;100.00
10008;BME280;5043;41.766;26.204;2023-06-22T02:08:17;101108.09;;;20.54;100.00
10008;BME280;5043;41.766;26.204;2023-06-22T02:10:46;101115.94;;;20.47;100.00
10008;BME280;5043;41.766;26.204;2023-06-22T02:13:14;101120.16;;;20.50;100.00
10008;BME280;5043;41.766;26.204;2023-06-22T02:15:40;101120.81;;;20.44;100.00
10008;BME280;5043;41.766;26.204;2023-06-22T02:18:06;101129.13;;;20.33;100.00
10008;BME280;5043;41.766;26.204;2023-06-22T02:20:32;101139.03;;;20.32;100.00
10008;BME280;5043;41.766;26.204;2023-06-22T02:22:57;101133.31;;;20.27;100.00
10008;BME280;5043;41.766;26.204;2023-06-22T02:25:22;101136.22;;;20.42;100.00
10008;BME280;5043;41.766;26.204;2023-06-22T02:27:48;101137.03;;;20.42;100.00
10008;BME280;5043;41.766;26.204;2023-06-22T02:30:14;101117.75;;;20.31;100.00
10008;BME280;5043;41.766;26.204;2023-06-22T02:32:41;101127.88;;;20.19;100.00
10008;BME280;5043;41.766;26.204;2023-06-22T02:35:08;101140.09;;;20.14;100.00
10008;BME280;5043;41.766;26.204;2023-06-22T02:37:35;101134.31;;;20.26;100.00
10008;BME280;5043;41.766;26.204;2023-06-22T02:40:01;101169.31;;;20.25;100.00
10008;BME280;5043;41.766;26.204;2023-06-22T02:42:27;101111.63;;;20.13;100.00
10008;BME280;5043;41.766;26.204;2023-06-22T02:44:52;101162.69;;;20.45;100.00
10008;BME280;5043;41.766;26.204;2023-06-22T02:47:18;101119.34;;;20.16;100.00
10008;BME280;5043;41.766;26.204;2023-06-22T02:49:43;101167.91;;;20.54;100.00
10008;BME280;5043;41.766;26.204;2023-06-22T02:52:11;101151.78;;;20.38;100.00
10008;BME280;5043;41.766;26.204;2023-06-22T02:54:36;101116.25;;;20.03;100.00
10008;BME280;5043;41.766;26.204;2023-06-22T02:57:01;101160.00;;;20.37;100.00
10008;BME280;5043;41.766;26.204;2023-06-22T02:59:28;101161.44;;;20.23;100.00
10008;BME280;5043;41.766;26.204;2023-06-22T03:01:53;101152.56;;;20.23;100.00
10008;BME280;5043;41.766;26.204;2023-06-22T03:04:19;101149.50;;;20.18;100.00
10008;BME280;5043;41.766;26.204;2023-06-22T03:06:44;101184.75;;;20.31;100.00
10008;BME280;5043;41.766;26.204;2023-06-22T03:09:10;101167.88;;;20.38;100.00
10008;BME280;5043;41.766;26.204;2023-06-22T03:11:36;101148.81;;;20.16;100.00
10008;BME280;5043;41.766;26.204;2023-06-22T03:14:01;101170.72;;;20.37;100.00
10008;BME280;5043;41.766;26.204;2023-06-22T03:16:27;101163.97;;;20.33;100.00
10008;BME280;5043;41.766;26.204;2023-06-22T03:18:53;101144.56;;;20.05;100.00
10008;BME280;5043;41.766;26.204;2023-06-22T03:21:19;101128.13;;;19.92;100.00
10008;BME280;5043;41.766;26.204;2023-06-22T03:23:44;101175.75;;;20.14;100.00
10008;BME280;5043;41.766;26.204;2023-06-22T03:26:10;101109.88;;;19.96;100.00
10008;BME280;5043;41.766;26.204;2023-06-22T03:28:36;101187.16;;;20.50;100.00
10008;BME280;5043;41.766;26.204;2023-06-22T03:31:03;101171.13;;;20.58;100.00
10008;BME280;5043;41.766;26.204;2023-06-22T03:33:29;101137.22;;;20.41;100.00
10008;BME280;5043;41.766;26.204;2023-06-22T03:35:55;101188.53;;;20.54;100.00
10008;BME280;5043;41.766;26.204;2023-06-22T03:38:22;101187.28;;;20.32;100.00
10008;BME280;5043;41.766;26.204;2023-06-22T03:40:47;101191.16;;;20.38;100.00
10008;BME280;5043;41.766;26.204;2023-06-22T03:43:12;101207.28;;;20.46;100.00
10008;BME280;5043;41.766;26.204;2023-06-22T03:45:38;101181.31;;;20.54;100.00
10008;BME280;5043;41.766;26.204;2023-06-22T03:48:05;101138.41;;;20.46;100.00
10008;BME280;5043;41.766;26.204;2023-06-22T03:50:30;101186.75;;;20.79;100.00
10008;BME280;5043;41.766;26.204;2023-06-22T03:52:56;101228.03;;;20.94;100.00
10008;BME280;5043;41.766;26.204;2023-06-22T03:55:21;101196.03;;;21.00;100.00
10008;BME280;5043;41.766;26.204;2023-06-22T03:57:47;101157.44;;;20.85;100.00
10008;BME280;5043;41.766;26.204;2023-06-22T04:00:13;101187.63;;;21.03;100.00
10008;BME280;5043;41.766;26.204;2023-06-22T04:02:40;101150.06;;;20.95;100.00
10008;BME280;5043;41.766;26.204;2023-06-22T04:05:06;101119.19;;;20.67;100.00
10008;BME280;5043;41.766;26.204;2023-06-22T04:07:31;101189.03;;;21.15;100.00
10008;BME280;5043;41.766;26.204;2023-06-22T04:09:57;101192.16;;;20.95;100.00
10008;BME280;5043;41.766;26.204;2023-06-22T04:12:23;101178.69;;;20.71;100.00
10008;BME280;5043;41.766;26.204;2023-06-22T04:14:48;101188.28;;;20.81;100.00
10008;BME280;5043;41.766;26.204;2023-06-22T04:17:14;101130.56;;;20.61;100.00
10008;BME280;5043;41.766;26.204;2023-06-22T04:19:40;101166.81;;;20.89;100.00
10008;BME280;5043;41.766;26.204;2023-06-22T04:22:06;101182.28;;;20.95;100.00
10008;BME280;5043;41.766;26.204;2023-06-22T04:24:35;101190.03;;;21.06;100.00
10008;BME280;5043;41.766;26.204;2023-06-22T04:27:01;101191.38;;;21.10;100.00
10008;BME280;5043;41.766;26.204;2023-06-22T04:29:28;101141.19;;;21.03;100.00
10008;BME280;5043;41.766;26.204;2023-06-22T04:31:56;101187.53;;;21.21;100.00
10008;BME280;5043;41.766;26.204;2023-06-22T04:34:23;101215.88;;;21.48;100.00
10008;BME280;5043;41.766;26.204;2023-06-22T04:36:51;101198.78;;;21.57;100.00
10008;BME280;5043;41.766;26.204;2023-06-22T04:39:17;101209.31;;;21.82;100.00
10008;BME280;5043;41.766;26.204;2023-06-22T04:41:44;101213.38;;;21.86;100.00
10008;BME280;5043;41.766;26.204;2023-06-22T04:44:15;101203.94;;;21.99;100.00
10008;BME280;5043;41.766;26.204;2023-06-22T04:46:55;101213.56;;;21.85;100.00
10008;BME280;5043;41.766;26.204;2023-06-22T04:49:26;101212.34;;;21.87;100.00
10008;BME280;5043;41.766;26.204;2023-06-22T04:51:57;101206.41;;;22.16;100.00
10008;BME280;5043;41.766;26.204;2023-06-22T04:54:23;101217.41;;;22.37;100.00
10008;BME280;5043;41.766;26.204;2023-06-22T04:56:48;101221.38;;;22.57;100.00
10008;BME280;5043;41.766;26.204;2023-06-22T04:59:22;101228.81;;;22.47;100.00
10008;BME280;5043;41.766;26.204;2023-06-22T05:01:54;101220.84;;;22.70;100.00
10008;BME280;5043;41.766;26.204;2023-06-22T05:04:21;101238.50;;;22.95;100.00
10008;BME280;5043;41.766;26.204;2023-06-22T05:06:50;101233.94;;;23.04;100.00
10008;BME280;5043;41.766;26.204;2023-06-22T05:09:15;101228.63;;;23.18;100.00
10008;BME280;5043;41.766;26.204;2023-06-22T05:11:43;101240.81;;;23.37;98.70
10008;BME280;5043;41.766;26.204;2023-06-22T05:14:08;101241.53;;;23.54;97.55
10008;BME280;5043;41.766;26.204;2023-06-22T05:16:34;101245.09;;;23.69;96.66
10008;BME280;5043;41.766;26.204;2023-06-22T05:18:59;101236.41;;;23.59;97.02
10008;BME280;5043;41.766;26.204;2023-06-22T05:21:26;101223.66;;;23.53;96.56
10008;BME280;5043;41.766;26.204;2023-06-22T05:23:53;101249.41;;;23.92;95.66
10008;BME280;5043;41.766;26.204;2023-06-22T05:26:21;101243.63;;;24.18;93.87
10008;BME280;5043;41.766;26.204;2023-06-22T05:28:47;101249.75;;;24.27;92.91
10008;BME280;5043;41.766;26.204;2023-06-22T05:31:14;101243.34;;;24.13;94.04
10008;BME280;5043;41.766;26.204;2023-06-22T05:33:40;101202.94;;;23.90;92.82
10008;BME280;5043;41.766;26.204;2023-06-22T05:36:06;101263.59;;;24.09;93.66
10008;BME280;5043;41.766;26.204;2023-06-22T05:38:32;101259.75;;;24.04;94.87
10008;BME280;5043;41.766;26.204;2023-06-22T05:40:57;101264.34;;;24.18;94.32
10008;BME280;5043;41.766;26.204;2023-06-22T05:43:23;101271.06;;;24.22;93.88
10008;BME280;5043;41.766;26.204;2023-06-22T05:45:48;101270.25;;;24.36;93.40
10008;BME280;5043;41.766;26.204;2023-06-22T05:48:13;101283.34;;;24.39;92.75
10008;BME280;5043;41.766;26.204;2023-06-22T05:50:39;101266.50;;;24.51;92.44
10008;BME280;5043;41.766;26.204;2023-06-22T05:53:04;101267.22;;;24.75;91.29
10008;BME280;5043;41.766;26.204;2023-06-22T05:55:32;101261.00;;;24.89;90.84
10008;BME280;5043;41.766;26.204;2023-06-22T05:57:57;101265.91;;;25.00;89.83
10008;BME280;5043;41.766;26.204;2023-06-22T06:00:23;101268.25;;;25.24;89.00
10008;BME280;5043;41.766;26.204;2023-06-22T06:02:49;101239.13;;;25.19;88.81
10008;BME280;5043;41.766;26.204;2023-06-22T06:05:14;101257.84;;;25.42;87.46
10008;BME280;5043;41.766;26.204;2023-06-22T06:07:42;101212.53;;;25.23;87.08
10008;BME280;5043;41.766;26.204;2023-06-22T06:10:09;101258.81;;;25.56;86.36
10008;BME280;5043;41.766;26.204;2023-06-22T06:12:34;101267.06;;;25.69;86.85
10008;BME280;5043;41.766;26.204;2023-06-22T06:15:01;101256.09;;;25.77;85.08
10008;BME280;5043;41.766;26.204;2023-06-22T06:17:30;101267.75;;;26.05;83.91
10008;BME280;5043;41.766;26.204;2023-06-22T06:20:00;101234.59;;;25.90;83.28
10008;BME280;5043;41.766;26.204;2023-06-22T06:22:27;101301.91;;;26.06;84.10
10008;BME280;5043;41.766;26.204;2023-06-22T06:24:53;101263.91;;;26.14;82.97
10008;BME280;5043;41.766;26.204;2023-06-22T06:27:18;101246.28;;;25.97;83.55
10008;BME280;5043;41.766;26.204;2023-06-22T06:29:44;101261.66;;;26.18;83.63
10008;BME280;5043;41.766;26.204;2023-06-22T06:32:16;101264.34;;;26.18;83.59
10008;BME280;5043;41.766;26.204;2023-06-22T06:34:45;101212.63;;;26.06;82.79
10008;BME280;5043;41.766;26.204;2023-06-22T06:37:10;101193.84;;;25.98;83.36
10008;BME280;5043;41.766;26.204;2023-06-22T06:39:36;101271.41;;;26.46;81.88
10008;BME280;5043;41.766;26.204;2023-06-22T06:42:02;101215.78;;;26.37;82.01
10008;BME280;5043;41.766;26.204;2023-06-22T06:44:29;101246.44;;;26.51;82.71
10008;BME280;5043;41.766;26.204;2023-06-22T06:46:57;101249.09;;;26.79;80.84
10008;BME280;5043;41.766;26.204;2023-06-22T06:49:23;101253.69;;;26.78;81.36
10008;BME280;5043;41.766;26.204;2023-06-22T06:51:53;101256.41;;;26.85;80.19
10008;BME280;5043;41.766;26.204;2023-06-22T06:54:21;101253.88;;;27.37;77.99
10008;BME280;5043;41.766;26.204;2023-06-22T06:56:50;101223.44;;;27.48;76.78
10008;BME280;5043;41.766;26.204;2023-06-22T06:59:16;101264.34;;;27.79;76.00
10008;BME280;5043;41.766;26.204;2023-06-22T07:01:42;101234.50;;;27.73;75.87
10008;BME280;5043;41.766;26.204;2023-06-22T07:04:10;101150.44;;;27.47;75.14
10008;BME280;5043;41.766;26.204;2023-06-22T07:06:35;101223.84;;;28.11;73.02
10008;BME280;5043;41.766;26.204;2023-06-22T07:09:01;101238.00;;;28.26;73.49
10008;BME280;5043;41.766;26.204;2023-06-22T07:11:27;101255.78;;;27.89;74.23
10008;BME280;5043;41.766;26.204;2023-06-22T07:13:54;101249.31;;;27.70;76.15
10008;BME280;5043;41.766;26.204;2023-06-22T07:16:22;101248.47;;;27.96;75.56
10008;BME280;5043;41.766;26.204;2023-06-22T07:18:51;101244.91;;;27.95;75.25
10008;BME280;5043;41.766;26.204;2023-06-22T07:21:23;101245.56;;;27.84;76.26
10008;BME280;5043;41.766;26.204;2023-06-22T07:23:52;101227.59;;;28.10;75.24
10008;BME280;5043;41.766;26.204;2023-06-22T07:26:18;101243.19;;;28.40;72.57
10008;BME280;5043;41.766;26.204;2023-06-22T07:28:48;101231.91;;;28.43;72.01
10008;BME280;5043;41.766;26.204;2023-06-22T07:31:20;101232.97;;;28.36;71.35
10008;BME280;5043;41.766;26.204;2023-06-22T07:34:07;101234.91;;;28.22;71.77
10008;BME280;5043;41.766;26.204;2023-06-22T07:36:32;101199.19;;;28.19;69.68
10008;BME280;5043;41.766;26.204;2023-06-22T07:39:02;101234.19;;;28.59;68.56
10008;BME280;5043;41.766;26.204;2023-06-22T07:41:34;101201.38;;;28.54;69.32
10008;BME280;5043;41.766;26.204;2023-06-22T07:44:04;101230.88;;;28.95;68.22
10008;BME280;5043;41.766;26.204;2023-06-22T07:46:36;101211.16;;;28.69;67.91
10008;BME280;5043;41.766;26.204;2023-06-22T07:49:02;101234.53;;;28.76;68.83
10008;BME280;5043;41.766;26.204;2023-06-22T07:51:37;101226.56;;;28.81;68.64
10008;BME280;5043;41.766;26.204;2023-06-22T07:54:05;101148.09;;;28.60;66.80
10008;BME280;5043;41.766;26.204;2023-06-22T07:56:35;101228.38;;;29.32;66.02
10008;BME280;5043;41.766;26.204;2023-06-22T07:59:01;101236.84;;;29.48;64.59
10008;BME280;5043;41.766;26.204;2023-06-22T08:01:30;101223.03;;;29.18;65.01
10008;BME280;5043;41.766;26.204;2023-06-22T08:03:56;101217.72;;;29.30;64.99
10008;BME280;5043;41.766;26.204;2023-06-22T08:06:22;101210.97;;;29.39;63.36
10008;BME280;5043;41.766;26.204;2023-06-22T08:08:47;101206.78;;;29.37;63.32
10008;BME280;5043;41.766;26.204;2023-06-22T08:11:14;101229.13;;;29.70;62.18
10008;BME280;5043;41.766;26.204;2023-06-22T08:13:40;101191.19;;;29.50;61.14
10008;BME280;5043;41.766;26.204;2023-06-22T08:16:05;101167.69;;;29.38;61.57
10008;BME280;5043;41.766;26.204;2023-06-22T08:18:32;101188.88;;;29.78;59.65
10008;BME280;5043;41.766;26.204;2023-06-22T08:20:59;101223.53;;;29.89;60.05
10008;BME280;5043;41.766;26.204;2023-06-22T08:23:25;101159.94;;;29.59;60.35
10008;BME280;5043;41.766;26.204;2023-06-22T08:25:50;101192.69;;;29.71;59.90
10008;BME280;5043;41.766;26.204;2023-06-22T08:28:17;101217.97;;;30.03;59.36
10008;BME280;5043;41.766;26.204;2023-06-22T08:30:42;101227.19;;;30.02;59.34
10008;BME280;5043;41.766;26.204;2023-06-22T08:33:08;101222.06;;;30.12;59.48
10008;BME280;5043;41.766;26.204;2023-06-22T08:35:34;101209.19;;;30.19;59.79
10008;BME280;5043;41.766;26.204;2023-06-22T08:37:59;101218.81;;;30.57;58.85
10008;BME280;5043;41.766;26.204;2023-06-22T08:40:27;101222.25;;;30.35;58.05
10008;BME280;5043;41.766;26.204;2023-06-22T08:42:52;101208.38;;;30.36;57.91
10008;BME280;5043;41.766;26.204;2023-06-22T08:45:18;101218.81;;;30.21;57.69
10008;BME280;5043;41.766;26.204;2023-06-22T08:47:45;101172.53;;;30.03;58.87
10008;BME280;5043;41.766;26.204;2023-06-22T08:50:12;101214.22;;;30.40;57.58
10008;BME280;5043;41.766;26.204;2023-06-22T08:52:39;101194.47;;;30.26;55.51
10008;BME280;5043;41.766;26.204;2023-06-22T08:55:07;101210.03;;;30.55;56.23
10008;BME280;5043;41.766;26.204;2023-06-22T08:57:34;101187.31;;;30.80;54.51
10008;BME280;5043;41.766;26.204;2023-06-22T09:00:07;101175.31;;;30.99;52.27
10008;BME280;5043;41.766;26.204;2023-06-22T09:02:41;101192.66;;;31.16;52.27
10008;BME280;5043;41.766;26.204;2023-06-22T09:05:08;101189.16;;;31.27;51.46
10008;BME280;5043;41.766;26.204;2023-06-22T09:07:34;101187.53;;;31.49;48.73
10008;BME280;5043;41.766;26.204;2023-06-22T09:10:05;101176.97;;;31.41;48.97
10008;BME280;5043;41.766;26.204;2023-06-22T09:12:31;101185.75;;;31.43;49.51
10008;BME280;5043;41.766;26.204;2023-06-22T09:14:59;101165.66;;;31.38;49.42
10008;BME280;5043;41.766;26.204;2023-06-22T09:17:26;101178.25;;;31.39;48.86
10008;BME280;5043;41.766;26.204;2023-06-22T09:19:52;101186.63;;;31.67;49.55
10008;BME280;5043;41.766;26.204;2023-06-22T09:22:17;101135.22;;;31.64;46.99
10008;BME280;5043;41.766;26.204;2023-06-22T09:30:55;101150.88;;;31.80;45.00
10008;BME280;5043;41.766;26.204;2023-06-22T09:33:25;101137.81;;;31.93;43.31
10008;BME280;5043;41.766;26.204;2023-06-22T09:35:51;101160.72;;;32.16;43.52
10008;BME280;5043;41.766;26.204;2023-06-22T09:38:17;101152.81;;;32.03;45.01
10008;BME280;5043;41.766;26.204;2023-06-22T09:40:44;101166.31;;;31.86;45.55
10008;BME280;5043;41.766;26.204;2023-06-22T09:43:09;101160.72;;;31.92;45.00
10008;BME280;5043;41.766;26.204;2023-06-22T09:45:35;101161.09;;;31.73;45.99
10008;BME280;5043;41.766;26.204;2023-06-22T09:48:04;101130.56;;;31.18;46.70
10008;BME280;5043;41.766;26.204;2023-06-22T09:50:33;101148.03;;;31.52;46.76
10008;BME280;5043;41.766;26.204;2023-06-22T09:53:08;101158.81;;;31.58;45.66
10008;BME280;5043;41.766;26.204;2023-06-22T09:55:37;101162.41;;;31.59;44.81
10008;BME280;5043;41.766;26.204;2023-06-22T09:58:03;101160.72;;;31.92;44.02
10008;BME280;5043;41.766;26.204;2023-06-22T10:00:28;101148.16;;;31.80;43.50
10008;BME280;5043;41.766;26.204;2023-06-22T10:02:54;101144.09;;;31.94;43.62
10008;BME280;5043;41.766;26.204;2023-06-22T10:05:29;101149.22;;;32.14;42.23
10008;BME280;5043;41.766;26.204;2023-06-22T10:08:00;101149.31;;;32.19;42.65
10008;BME280;5043;41.766;26.204;2023-06-22T10:10:26;101136.53;;;32.36;42.33
10008;BME280;5043;41.766;26.204;2023-06-22T10:12:57;101128.47;;;32.69;42.66
10008;BME280;5043;41.766;26.204;2023-06-22T10:15:27;101142.19;;;33.14;41.82
10008;BME280;5043;41.766;26.204;2023-06-22T10:17:53;101149.28;;;33.48;39.76
10008;BME280;5043;41.766;26.204;2023-06-22T10:20:18;101113.78;;;32.87;40.02
10008;BME280;5043;41.766;26.204;2023-06-22T10:22:47;101115.34;;;32.99;39.71
10008;BME280;5043;41.766;26.204;2023-06-22T10:25:13;101126.91;;;33.35;39.69
10008;BME280;5043;41.766;26.204;2023-06-22T10:27:39;101136.88;;;33.41;38.68
10008;BME280;5043;41.766;26.204;2023-06-22T10:30:10;101137.69;;;33.58;39.32
10008;BME280;5043;41.766;26.204;2023-06-22T10:32:42;101120.13;;;33.54;39.44
10008;BME280;5043;41.766;26.204;2023-06-22T10:35:13;101126.75;;;33.58;38.16
10008;BME280;5043;41.766;26.204;2023-06-22T10:37:45;101083.13;;;33.01;38.27
10008;BME280;5043;41.766;26.204;2023-06-22T10:40:16;101125.28;;;33.34;38.86
10008;BME280;5043;41.766;26.204;2023-06-22T10:42:44;101125.41;;;33.27;38.58
10008;BME280;5043;41.766;26.204;2023-06-22T10:45:10;101081.72;;;33.32;37.58
10008;BME280;5043;41.766;26.204;2023-06-22T10:47:36;101120.28;;;33.64;37.15
10008;BME280;5043;41.766;26.204;2023-06-22T10:50:04;101078.59;;;33.07;37.78
10008;BME280;5043;41.766;26.204;2023-06-22T10:52:29;101068.88;;;33.16;37.93
10008;BME280;5043;41.766;26.204;2023-06-22T10:54:59;101105.25;;;33.50;37.46
10008;BME280;5043;41.766;26.204;2023-06-22T10:57:25;101109.53;;;33.57;37.34
10008;BME280;5043;41.766;26.204;2023-06-22T10:59:53;101121.00;;;33.98;36.51
10008;BME280;5043;41.766;26.204;2023-06-22T11:02:20;101110.06;;;34.41;35.36
10008;BME280;5043;41.766;26.204;2023-06-22T11:04:46;101102.97;;;34.67;35.19
10008;BME280;5043;41.766;26.204;2023-06-22T11:07:16;101072.34;;;34.75;34.23
10008;BME280;5043;41.766;26.204;2023-06-22T11:09:43;101122.78;;;35.00;33.19
10008;BME280;5043;41.766;26.204;2023-06-22T11:12:09;101061.91;;;35.03;32.34
10008;BME280;5043;41.766;26.204;2023-06-22T11:14:34;101089.00;;;35.32;32.77
10008;BME280;5043;41.766;26.204;2023-06-22T11:17:00;101092.75;;;35.52;30.93
10008;BME280;5043;41.766;26.204;2023-06-22T11:19:26;101089.31;;;35.35;30.08
10008;BME280;5043;41.766;26.204;2023-06-22T11:21:51;101087.38;;;35.31;31.11
10008;BME280;5043;41.766;26.204;2023-06-22T11:24:17;101074.94;;;35.23;31.41
10008;BME280;5043;41.766;26.204;2023-06-22T11:26:43;101057.66;;;35.22;31.54
10008;BME280;5043;41.766;26.204;2023-06-22T11:29:09;101028.84;;;35.25;31.35
10008;BME280;5043;41.766;26.204;2023-06-22T11:31:39;101069.88;;;35.94;30.92
10008;BME280;5043;41.766;26.204;2023-06-22T11:34:06;101077.19;;;36.30;30.30
10008;BME280;5043;41.766;26.204;2023-06-22T11:36:31;101071.78;;;36.55;29.93
10008;BME280;5043;41.766;26.204;2023-06-22T11:39:03;101056.53;;;36.27;28.74
10008;BME280;5043;41.766;26.204;2023-06-22T11:41:33;101069.28;;;36.59;28.04
10008;BME280;5043;41.766;26.204;2023-06-22T11:44:14;101072.09;;;37.09;27.80
10008;BME280;5043;41.766;26.204;2023-06-22T11:46:43;101066.84;;;37.43;26.66
10008;BME280;5043;41.766;26.204;2023-06-22T11:49:09;101068.72;;;37.62;26.38
10008;BME280;5043;41.766;26.204;2023-06-22T11:51:37;101072.53;;;37.76;26.55
10008;BME280;5043;41.766;26.204;2023-06-22T11:54:07;101046.75;;;38.11;25.65
10008;BME280;5043;41.766;26.204;2023-06-22T11:56:36;101051.22;;;38.51;25.00
10008;BME280;5043;41.766;26.204;2023-06-22T11:59:06;101040.22;;;37.97;25.06
10008;BME280;5043;41.766;26.204;2023-06-22T12:01:32;101056.28;;;38.34;25.54
10008;BME280;5043;41.766;26.204;2023-06-22T12:04:01;101060.09;;;38.87;24.72
10008;BME280;5043;41.766;26.204;2023-06-22T12:06:31;101027.97;;;38.96;24.17
10008;BME280;5043;41.766;26.204;2023-06-22T12:08:57;101036.34;;;38.86;23.79
10008;BME280;5043;41.766;26.204;2023-06-22T12:11:23;101059.19;;;38.52;23.37
10008;BME280;5043;41.766;26.204;2023-06-22T12:13:49;101059.63;;;38.70;23.21
10008;BME280;5043;41.766;26.204;2023-06-22T12:16:14;101047.44;;;38.76;23.13
10008;BME280;5043;41.766;26.204;2023-06-22T12:18:40;101047.06;;;39.21;23.01
10008;BME280;5043;41.766;26.204;2023-06-22T12:21:07;101043.31;;;39.07;22.25
10008;BME280;5043;41.766;26.204;2023-06-22T12:23:33;100918.06;;;38.40;22.40
10008;BME280;5043;41.766;26.204;2023-06-22T12:25:58;101029.47;;;39.41;22.40
10008;BME280;5043;41.766;26.204;2023-06-22T12:28:25;101051.72;;;40.02;21.66
10008;BME280;5043;41.766;26.204;2023-06-22T12:30:54;101010.47;;;40.00;21.55
10008;BME280;5043;41.766;26.204;2023-06-22T12:33:19;101049.59;;;40.87;21.34
10008;BME280;5043;41.766;26.204;2023-06-22T12:35:48;101048.84;;;41.13;21.60
10008;BME280;5043;41.766;26.204;2023-06-22T12:38:14;101058.66;;;40.74;20.92
10008;BME280;5043;41.766;26.204;2023-06-22T12:40:40;101043.16;;;40.73;21.38
10008;BME280;5043;41.766;26.204;2023-06-22T12:43:05;101010.59;;;40.83;20.89
10008;BME280;5043;41.766;26.204;2023-06-22T12:45:33;101029.13;;;41.01;20.71
10008;BME280;5043;41.766;26.204;2023-06-22T12:48:00;101038.34;;;40.97;21.08
10008;BME280;5043;41.766;26.204;2023-06-22T12:50:28;101003.19;;;41.11;20.42
10008;BME280;5043;41.766;26.204;2023-06-22T12:52:54;101038.63;;;41.41;20.68
10008;BME280;5043;41.766;26.204;2023-06-22T12:55:21;100995.78;;;41.06;21.42
10008;BME280;5043;41.766;26.204;2023-06-22T12:58:00;101043.78;;;41.61;20.28
10008;BME280;5043;41.766;26.204;2023-06-22T13:00:26;101033.31;;;41.72;20.32
10008;BME280;5043;41.766;26.204;2023-06-22T13:02:52;101034.91;;;42.14;20.23